Betagas — V2KA8 — position and weather

sailwx.info

Track history (hours):
 
Tides and Currents Weather Stations Pressure Air Temp Water Temp Dewpoint Dewpoint Depression Visibility Wind Speed Wind Dir Waves Ship Positions

Betagas

Last reported at 2014-Sep-20 07:04 UTC. Time now 2014-Sep-20 07:57 UTC.
Position N 37°25' E 005°40'.

Length 114.6 m; beam 15.7 m; draft 7.4 m.

Type: Tanker. MMSI: 304050636.

Date/timePositionNaut miles runAvg speedWind from/ knotsBaromVisibWave heightAir tempDewpointWater temp
2014-Sep-20 07:04N 37°25' E 005°40'712.8
2014-Sep-20 06:33N 37°26' E 005°48'1313.0
2014-Sep-20 05:33N 37°28' E 006°04'1412.7
2014-Sep-20 04:29N 37°30' E 006°21'7312.2
2014-Sep-19 22:27N 37°42' E 007°53'2511.0
2014-Sep-19 20:10N 37°46' E 008°24'710.8
2014-Sep-19 19:33N 37°47' E 008°32'1111.3
2014-Sep-19 18:33N 37°49' E 008°47'1111.2
2014-Sep-19 17:34N 37°50' E 009°00'1211.4
2014-Sep-19 16:33N 37°52' E 009°15'1211.8
2014-Sep-19 15:32N 37°54' E 009°30'1212.0
2014-Sep-19 14:33N 37°56' E 009°45'1211.8
2014-Sep-19 13:33N 37°58' E 009°59'1211.8
2014-Sep-19 12:33N 37°59' E 010°14'1211.4
2014-Sep-19 11:31N 38°01' E 010°29'13910.8
2014-Sep-18 22:34N 38°18' E 013°25'1212.2
2014-Sep-18 21:34N 38°18' E 013°40'1212.0
2014-Sep-18 20:34N 38°18' E 013°56'1212.0
2014-Sep-18 19:33N 38°18' E 014°11'1212.4
2014-Sep-18 18:34N 38°18' E 014°27'1312.5
2014-Sep-18 17:33N 38°18' E 014°43'  
2014-Sep-15 15:33N 38°18' E 013°57'1212.0
2014-Sep-15 14:33N 38°18' E 013°42'1212.1
2014-Sep-15 13:33N 38°18' E 013°26'1212.1
2014-Sep-15 12:33N 38°18' E 013°11'1212.0
2014-Sep-15 11:33N 38°18' E 012°56'1312.1
2014-Sep-15 10:31N 38°17' E 012°40'11411.2
2014-Sep-15 00:20N 37°59' E 010°17'31711.4
2014-Sep-13 20:34N 37°08' E 003°42'5112.4
2014-Sep-13 16:28N 37°00' E 002°39'1111.9
2014-Sep-13 15:34N 36°58' E 002°26'1211.6
2014-Sep-13 14:30N 36°56' E 002°11'2311.5
2014-Sep-13 12:32N 36°53' E 001°43'1111.6
2014-Sep-13 11:33N 36°51' E 001°29'3812.1
2014-Sep-13 08:24N 36°45' E 000°42'1311.8
2014-Sep-13 07:19N 36°43' E 000°26'911.7
2014-Sep-13 06:32N 36°41' E 000°15'1212.2
2014-Sep-13 05:32N 36°39' W 000°00'1111.7
2014-Sep-13 04:33N 36°38' W 000°14'1311.8
2014-Sep-13 03:25N 36°35' W 000°31'1011.4
2014-Sep-13 02:31N 36°34' W 000°43'1111.5
2014-Sep-13 01:34N 36°32' W 000°57'1311.5
2014-Sep-13 00:25N 36°30' W 001°13'910.9
2014-Sep-12 23:33N 36°28' W 001°25'18912.4
2014-Sep-12 08:17N 35°60' W 005°16'  
Track history (hours):
 
Tides and Currents Weather Stations Pressure Air Temp Water Temp Dewpoint Dewpoint Depression Visibility Wind Speed Wind Dir Waves Ship Positions

Betagas

Last reported at 2014-Sep-20 07:04 UTC. Time now 2014-Sep-20 07:57 UTC.
Position N 37°25' E 005°40'.

Length 114.6 m; beam 15.7 m; draft 7.4 m.

Type: Tanker. MMSI: 304050636.

Date/timePositionNaut miles runAvg speedWind from/ knotsBaromVisibWave heightAir tempDewpointWater temp
2014-Sep-20 07:04N 37°25' E 005°40'712.8
2014-Sep-20 06:33N 37°26' E 005°48'1313.0
2014-Sep-20 05:33N 37°28' E 006°04'1412.7
2014-Sep-20 04:29N 37°30' E 006°21'7312.2
2014-Sep-19 22:27N 37°42' E 007°53'2511.0
2014-Sep-19 20:10N 37°46' E 008°24'710.8
2014-Sep-19 19:33N 37°47' E 008°32'1111.3
2014-Sep-19 18:33N 37°49' E 008°47'1111.2
2014-Sep-19 17:34N 37°50' E 009°00'1211.4
2014-Sep-19 16:33N 37°52' E 009°15'1211.8
2014-Sep-19 15:32N 37°54' E 009°30'1212.0
2014-Sep-19 14:33N 37°56' E 009°45'1211.8
2014-Sep-19 13:33N 37°58' E 009°59'1211.8
2014-Sep-19 12:33N 37°59' E 010°14'1211.4
2014-Sep-19 11:31N 38°01' E 010°29'13910.8
2014-Sep-18 22:34N 38°18' E 013°25'1212.2
2014-Sep-18 21:34N 38°18' E 013°40'1212.0
2014-Sep-18 20:34N 38°18' E 013°56'1212.0
2014-Sep-18 19:33N 38°18' E 014°11'1212.4
2014-Sep-18 18:34N 38°18' E 014°27'1312.5
2014-Sep-18 17:33N 38°18' E 014°43'  
2014-Sep-15 15:33N 38°18' E 013°57'1212.0
2014-Sep-15 14:33N 38°18' E 013°42'1212.1
2014-Sep-15 13:33N 38°18' E 013°26'1212.1
2014-Sep-15 12:33N 38°18' E 013°11'1212.0
2014-Sep-15 11:33N 38°18' E 012°56'1312.1
2014-Sep-15 10:31N 38°17' E 012°40'11411.2
2014-Sep-15 00:20N 37°59' E 010°17'31711.4
2014-Sep-13 20:34N 37°08' E 003°42'5112.4
2014-Sep-13 16:28N 37°00' E 002°39'1111.9
2014-Sep-13 15:34N 36°58' E 002°26'1211.6
2014-Sep-13 14:30N 36°56' E 002°11'2311.5
2014-Sep-13 12:32N 36°53' E 001°43'1111.6
2014-Sep-13 11:33N 36°51' E 001°29'3812.1
2014-Sep-13 08:24N 36°45' E 000°42'1311.8
2014-Sep-13 07:19N 36°43' E 000°26'911.7
2014-Sep-13 06:32N 36°41' E 000°15'1212.2
2014-Sep-13 05:32N 36°39' W 000°00'1111.7
2014-Sep-13 04:33N 36°38' W 000°14'1311.8
2014-Sep-13 03:25N 36°35' W 000°31'1011.4
2014-Sep-13 02:31N 36°34' W 000°43'1111.5
2014-Sep-13 01:34N 36°32' W 000°57'1311.5
2014-Sep-13 00:25N 36°30' W 001°13'910.9
2014-Sep-12 23:33N 36°28' W 001°25'18912.4
2014-Sep-12 08:17N 35°60' W 005°16'  

Dump ship's entire track history